Flight Track Log - Related Links

Times and Time Zones

All times are in EDT time to prevent confusion due to time zone crossing. See the ELJ309 flight status page for this flight to view local times or setup timezone preferences in your user account.

Time Position Orientation Groundspeed Altitude Reporting Facility
EDT Latitude Longitude Course Direction KTS MPH feet Rate Location/Type
Sat 10:52:55 AM 30.2722 -84.2058 148° Southeast 270 311 8,300  Level Jacksonville Center
Sat 10:53:55 AM 30.2058 -84.1642 152° Southeast 280 322 10,000 1,750 Climbing Jacksonville Center
Sat 10:54:55 AM 30.1231 -84.1053 148° Southeast 306 352 11,800 2,000 Climbing Jacksonville Center
Sat 10:55:55 AM 30.0378 -84.0492 150° Southeast 344 396 14,000 2,350 Climbing Jacksonville Center
Sat 10:56:00 AM 29.9683 -84.0870 147° Southeast  Level Estimated
Sat 10:56:55 AM 29.9506 -83.9928 151° Southeast 351 404 16,500  Level Jacksonville Center
Sat 10:57:00 AM 29.9194 -84.0127 127° Southeast  Level FlightAware
Sat 10:57:55 AM 29.8636 -83.9344 150° Southeast 356 410 17,300  Level Jacksonville Center
Sat 10:58:00 AM 29.8474 -83.9700 148° Southeast  Level Estimated
Sat 10:58:55 AM 29.7722 -83.8736 150° Southeast 368 423 19,400  Level Jacksonville Center
Sat 10:59:55 AM 29.6828 -83.8131 150° Southeast 373 429 21,800 1,800 Climbing Jacksonville Center
Sat 11:00:55 AM 29.5914 -83.7572 152° Southeast 373 429 23,000 600 Climbing Jacksonville Center
Sat 11:01:55 AM 29.4936 -83.6919 150° Southeast 380 437 23,000  Level Jacksonville Center
Sat 11:02:55 AM 29.3917 -83.6242 150° Southeast 405 466 23,000  Level Jacksonville Center
Sat 11:04:00 AM 29.3051 -83.5673 154° Southeast  Level FlightAware
Sat 11:04:55 AM 29.1900 -83.5064 154° Southeast 427 491 23,000  Level Jacksonville Center
Sat 11:05:55 AM 29.0836 -83.4508 155° Southeast 427 491 22,400 -850 Descending Jacksonville Center
Sat 11:06:55 AM 28.9753 -83.3933 155° Southeast 422 486 21,300 -1,000 Descending Jacksonville Center
Sat 11:07:55 AM 28.8711 -83.3358 154° Southeast 422 486 20,400 -950 Descending Jacksonville Center
Sat 11:08:55 AM 28.7650 -83.2811 156° South 422 486 19,400 -1,000 Descending Jacksonville Center
Sat 11:09:55 AM 28.6608 -83.2239 154° Southeast 417 480 18,400 -1,022 Descending Jacksonville Center
Sat 11:11:57 AM 28.4500 -83.1167 156° South 398 458 16,300 -1,220 Descending Tampa TRACON
Sat 11:12:57 AM 28.3500 -83.0667 156° South 395 455 14,700 -1,550 Descending Tampa TRACON
Sat 11:13:57 AM 28.2500 -83.0000 150° Southeast 388 447 13,200 -1,550 Descending Tampa TRACON
Sat 11:14:57 AM 28.1500 -82.9500 156° South 382 440 11,600 -1,500 Descending Tampa TRACON
Sat 11:15:57 AM 28.0667 -82.9167 161° South 340 391 10,200 -1,500 Descending Tampa TRACON
Sat 11:16:57 AM 27.9833 -82.8667 152° Southeast 304 350 8,600 -1,524 Descending Tampa TRACON
Sat 11:18:03 AM 27.9000 -82.8167 152° Southeast 296 341 7,000 -1,190 Descending Tampa TRACON
Sat 11:19:03 AM 27.8333 -82.7833 156° South 288 331 6,100 -470 Descending Tampa TRACON
Sat 11:19:58 AM 27.7667 -82.7500 156° South 289 333 6,100  Level Tampa TRACON
Sat 11:20:58 AM 27.7000 -82.7000 146° Southeast 290 334 6,100 -95 Level Tampa TRACON
Sat 11:22:04 AM 27.6167 -82.6667 160° South 290 334 5,900 -750 Descending Tampa TRACON
Sat 11:22:58 AM 27.5667 -82.6167 138° Southeast 281 323 4,600 -1,421 Descending Tampa TRACON
Sat 11:23:58 AM 27.5167 -82.5500 130° Southeast 284 327 3,200 -750 Descending Tampa TRACON
Sat 11:24:58 AM 27.4500 -82.4833 138° Southeast 269 310 3,100 -526 Descending Tampa TRACON
Sat 11:25:52 AM 27.4167 -82.4500 138° Southeast 244 281 2,200 -835 Descending Tampa TRACON
Sat 11:26:53 AM 27.3667 -82.4833 211° Southwest 163 188 1,500 -645 Descending Tampa TRACON
Sat 11:27:53 AM 27.3500 -82.5167 241° Southwest 131 151 900 -600 Descending Tampa TRACON
Sat 11:28:53 AM 27.3833 -82.5333 336° Northwest 116 133 300 -600 Descending Tampa TRACON
Sat 11:30:00 AM 27.3833 -82.5500 318° Northwest  Level FlightAware
Sat 11:37:00 AM 27.3954 -82.5544 318° Northwest  Level Estimated
Sat 11:38:00 AM 27.3954 -82.5544 318° Northwest  Level Estimated

Login

Don't have an account? Register now (free) for customized features, flight alerts, and more!